Noble, Ohio
Current Conditions -  °F | °C
As of 6:45 AM on Thursday 27 Nov 2014 (Local Time) from KCGF Reporting Station
Light Snow Light Snow  
Wind Chill: -1°   Ceiling: 1000
Heat Index:   Visibility: 1.5mi
Dew Point:   Wind: 5mph
Humidity: 93%   Direction: 300°WNW
Pressure: 30.06"   Gusts: NA
Location:  41.6046°N, 81.5°W
Report Text: KCGF 271145Z 30004KT 1 1/2SM -SN BKN010 OVC020 01/00 A3006
Loading
Personal Weather Stations






























Interactive Weather Map New forecast layout! Learn more

10-Day Weather Forecast

Advertisements
Track Severe Weather on mobile